createdAt,value
2019-02-26T00:01:26.190Z,99.90
2019-02-26T00:03:55.799Z,99.90
2019-02-26T00:06:25.341Z,99.90
2019-02-26T00:08:58.184Z,99.90
2019-02-26T00:11:26.720Z,99.90
2019-02-26T00:13:57.370Z,99.90
2019-02-26T00:16:27.283Z,99.90
2019-02-26T00:18:56.218Z,99.90
2019-02-26T00:21:28.699Z,99.90
2019-02-26T00:23:57.353Z,99.90
2019-02-26T00:26:26.295Z,99.90
2019-02-26T00:28:56.793Z,99.90
2019-02-26T00:31:28.161Z,99.90
2019-02-26T00:33:57.507Z,99.90
2019-02-26T00:36:27.123Z,99.90
2019-02-26T00:38:58.448Z,99.90
2019-02-26T00:41:29.143Z,99.90
2019-02-26T00:43:59.861Z,99.90
2019-02-26T00:46:30.212Z,99.90
2019-02-26T00:49:00.864Z,99.90
2019-02-26T00:51:30.923Z,99.90
2019-02-26T00:54:01.837Z,99.90
2019-02-26T00:56:31.696Z,99.90
2019-02-26T00:59:00.955Z,99.90
2019-02-26T01:01:29.715Z,99.90
2019-02-26T01:03:58.600Z,99.90
2019-02-26T01:06:28.989Z,99.90
2019-02-26T01:08:58.987Z,99.90
2019-02-26T01:11:30.262Z,99.90
2019-02-26T01:13:59.592Z,99.90
2019-02-26T01:16:28.495Z,99.90
2019-02-26T01:18:57.316Z,99.90
2019-02-26T01:21:28.581Z,99.90
2019-02-26T01:23:59.640Z,99.90
2019-02-26T01:26:27.923Z,99.90
2019-02-26T01:28:58.581Z,99.90
2019-02-26T01:31:29.305Z,99.90
2019-02-26T01:33:58.646Z,99.90
2019-02-26T01:36:27.543Z,99.90
2019-02-26T01:38:56.718Z,99.90
2019-02-26T01:41:27.193Z,99.90
2019-02-26T01:43:56.080Z,99.90
2019-02-26T01:46:25.290Z,99.90
2019-02-26T01:48:55.199Z,99.90
2019-02-26T01:51:26.099Z,99.90
2019-02-26T01:53:56.161Z,99.90
2019-02-26T01:56:25.100Z,99.90
2019-02-26T01:58:56.822Z,99.90
2019-02-26T02:01:26.176Z,99.90
2019-02-26T02:03:56.141Z,99.90
2019-02-26T02:06:25.250Z,99.90
2019-02-26T02:08:55.708Z,99.90
2019-02-26T02:11:28.446Z,99.90
2019-02-26T02:13:55.338Z,99.90
2019-02-26T04:06:18.080Z,99.90
2019-02-26T04:08:48.582Z,99.90
2019-02-26T04:11:20.045Z,99.90
2019-02-26T04:13:51.492Z,99.90
2019-02-26T04:16:19.684Z,99.90
2019-02-26T04:18:51.136Z,99.90
2019-02-26T04:21:21.093Z,99.90
2019-02-26T04:23:51.440Z,99.90
2019-02-26T04:26:35.089Z,99.90
2019-02-26T04:29:16.945Z,99.90
2019-02-26T04:32:24.594Z,99.90
2019-02-26T04:35:24.767Z,99.90
2019-02-26T04:38:28.479Z,99.90
2019-02-26T04:41:41.295Z,99.90
2019-02-26T04:44:35.956Z,99.90
2019-02-26T04:47:24.045Z,99.90
2019-02-26T04:49:54.427Z,99.90
2019-02-26T04:52:23.175Z,99.90
2019-02-26T04:54:52.167Z,99.90
2019-02-26T04:57:21.024Z,99.90
2019-02-26T04:59:50.170Z,99.90
2019-02-26T05:02:19.308Z,99.90
2019-02-26T05:04:48.338Z,99.90
2019-02-26T05:07:19.342Z,99.90
2019-02-26T05:09:50.137Z,99.90
2019-02-26T05:12:18.339Z,99.90
2019-02-26T05:14:47.284Z,99.90
2019-02-26T05:17:18.487Z,99.90
2019-02-26T05:19:48.745Z,99.90
2019-02-26T05:22:19.836Z,99.90
2019-02-26T05:24:50.275Z,99.90
2019-02-26T05:27:22.754Z,99.90
2019-02-26T05:29:54.448Z,99.90
2019-02-26T05:32:25.031Z,99.90
2019-02-26T05:34:53.054Z,99.90
2019-02-26T05:37:21.956Z,99.90
2019-02-26T05:39:51.725Z,99.90
2019-02-26T05:42:21.449Z,99.90
2019-02-26T05:44:53.819Z,99.90
2019-02-26T05:47:21.977Z,99.90
2019-02-26T05:49:51.658Z,99.90
2019-02-26T05:52:21.908Z,99.90
2019-02-26T05:54:52.668Z,99.90
2019-02-26T05:57:27.662Z,99.90
2019-02-26T05:59:52.371Z,99.90
2019-02-26T06:02:22.286Z,99.90
2019-02-26T06:04:51.787Z,99.90
2019-02-26T06:07:24.138Z,99.90
2019-02-26T06:09:53.619Z,99.90
2019-02-26T06:12:21.928Z,99.90
2019-02-26T06:14:51.512Z,99.90
2019-02-26T06:17:20.933Z,99.90
2019-02-26T06:19:50.217Z,99.90
2019-02-26T06:22:21.332Z,99.90
2019-02-26T06:24:55.022Z,99.90
2019-02-26T06:27:25.185Z,99.90
2019-02-26T06:29:55.463Z,99.90
2019-02-26T06:32:27.422Z,99.90
2019-02-26T06:34:56.098Z,99.90
2019-02-26T06:37:24.895Z,99.90
2019-02-26T06:39:55.671Z,99.90
2019-02-26T06:42:24.324Z,99.90
2019-02-26T06:44:53.288Z,99.90
2019-02-26T06:47:25.960Z,99.90
2019-02-26T06:49:54.000Z,99.90
2019-02-26T06:52:23.007Z,99.90
2019-02-26T06:54:56.896Z,99.90
2019-02-26T06:57:22.764Z,99.90
2019-02-26T06:59:55.133Z,99.90
2019-02-26T07:02:23.271Z,99.90
2019-02-26T07:04:52.271Z,99.90
2019-02-26T07:07:21.161Z,99.90
2019-02-26T07:09:49.989Z,99.90
2019-02-26T07:12:21.721Z,99.90
2019-02-26T07:14:51.338Z,99.90
2019-02-26T07:17:26.855Z,99.90
2019-02-26T07:19:57.803Z,99.90
2019-02-26T07:22:26.767Z,99.90
2019-02-26T07:24:55.554Z,99.90
2019-02-26T07:27:26.320Z,99.90
2019-02-26T07:29:55.115Z,99.90
2019-02-26T07:32:24.617Z,99.90
2019-02-26T07:34:53.472Z,99.90
2019-02-26T07:37:22.949Z,99.90
2019-02-26T07:39:51.767Z,99.90
2019-02-26T07:42:20.563Z,99.90
2019-02-26T07:44:49.814Z,99.90
2019-02-26T07:47:19.100Z,99.90
2019-02-26T07:49:47.947Z,99.90
2019-02-26T07:52:17.066Z,99.90
2019-02-26T07:54:47.596Z,99.90
2019-02-26T07:57:18.220Z,99.90
2019-02-26T07:59:48.265Z,99.90
2019-02-26T08:02:18.380Z,99.90
2019-02-26T08:04:47.261Z,99.90
2019-02-26T08:07:16.151Z,99.90
2019-02-26T08:09:45.004Z,99.90
2019-02-26T08:12:13.856Z,99.90
2019-02-26T08:14:43.386Z,99.90
2019-02-26T08:17:13.493Z,99.90
2019-02-26T08:19:46.331Z,99.90
2019-02-26T08:22:12.966Z,99.90
2019-02-26T08:24:41.861Z,99.90
2019-02-26T08:27:11.574Z,99.90
2019-02-26T08:29:41.487Z,99.90
2019-02-26T08:32:13.804Z,99.90
2019-02-26T08:34:41.067Z,99.90
2019-02-26T08:37:10.014Z,99.90
2019-02-26T08:39:38.879Z,99.90
2019-02-26T08:42:11.490Z,99.90
2019-02-26T08:44:40.317Z,99.90
2019-02-26T08:47:11.410Z,99.90
2019-02-26T08:49:42.562Z,99.90
2019-02-26T08:52:10.881Z,99.90
2019-02-26T08:54:39.702Z,99.90
2019-02-26T08:57:08.892Z,99.90
2019-02-26T08:59:37.675Z,99.90
2019-02-26T09:02:06.612Z,99.90
2019-02-26T09:04:37.838Z,99.90
2019-02-26T09:07:06.107Z,99.90
2019-02-26T09:09:35.039Z,99.90
2019-02-26T09:12:03.913Z,99.90
2019-02-26T09:14:37.274Z,99.90
2019-02-26T09:17:04.602Z,99.90
2019-02-26T09:19:35.457Z,99.90
2019-02-26T09:22:04.035Z,99.90
2019-02-26T09:24:32.962Z,99.90
2019-02-26T09:27:02.701Z,99.90
2019-02-26T09:29:34.172Z,99.90
2019-02-26T09:32:06.638Z,99.90
2019-02-26T09:34:34.311Z,99.90
2019-02-26T09:37:05.768Z,99.90
2019-02-26T09:39:36.500Z,99.90
2019-02-26T09:42:06.543Z,99.90
2019-02-26T09:44:36.059Z,99.90
2019-02-26T09:47:07.366Z,99.90
2019-02-26T09:49:35.984Z,99.90
2019-02-26T09:52:06.542Z,99.90
2019-02-26T09:54:40.221Z,99.90
2019-02-26T09:57:06.425Z,99.90
2019-02-26T09:59:35.904Z,99.90
2019-02-26T10:02:06.169Z,99.90
2019-02-26T10:04:35.140Z,99.50
2019-02-26T10:07:04.710Z,98.80
2019-02-26T10:09:36.757Z,95.30
2019-02-26T10:12:07.467Z,96.80
2019-02-26T10:14:36.575Z,95.00
2019-02-26T10:17:06.123Z,92.80
2019-02-26T10:19:35.719Z,93.10
2019-02-26T10:22:09.585Z,92.70
2019-02-26T10:24:39.680Z,91.40
2019-02-26T10:27:10.905Z,91.70
2019-02-26T10:29:39.360Z,88.20
2019-02-26T10:32:11.237Z,88.80
2019-02-26T10:34:38.619Z,85.10
2019-02-26T10:37:09.037Z,84.60
2019-02-26T10:39:37.918Z,83.90
2019-02-26T10:42:06.713Z,84.20
2019-02-26T10:44:35.498Z,84.20
2019-02-26T10:47:07.743Z,84.40
2019-02-26T10:49:34.925Z,79.10
2019-02-26T10:52:03.810Z,79.80
2019-02-26T10:54:39.516Z,77.90
2019-02-26T10:57:07.068Z,80.20
2019-02-26T10:59:33.636Z,79.50
2019-02-26T11:02:03.252Z,76.80
2019-02-26T11:04:35.636Z,75.20
2019-02-26T11:07:04.805Z,75.10
2019-02-26T11:09:34.024Z,74.30
2019-02-26T11:12:05.878Z,82.90
2019-02-26T11:14:36.238Z,87.50
2019-02-26T11:17:04.370Z,91.00
2019-02-26T11:19:35.779Z,92.40
2019-02-26T11:22:04.391Z,91.10
2019-02-26T11:24:34.133Z,88.00
2019-02-26T11:27:03.899Z,84.60
2019-02-26T11:29:34.054Z,83.40
2019-02-26T11:32:05.716Z,83.20
2019-02-26T11:34:36.255Z,84.00
2019-02-26T11:37:08.821Z,78.10
2019-02-26T11:39:35.836Z,76.10
2019-02-26T11:42:04.693Z,78.50
2019-02-26T11:44:33.520Z,73.40
2019-02-26T11:47:02.361Z,73.80
2019-02-26T11:49:31.264Z,74.90
2019-02-26T11:52:01.643Z,74.90
2019-02-26T11:54:34.106Z,72.90
2019-02-26T11:57:01.765Z,72.60
2019-02-26T11:59:31.637Z,73.80
2019-02-26T12:02:03.907Z,74.90
2019-02-26T12:04:32.216Z,79.30
2019-02-26T12:07:04.122Z,81.30
2019-02-26T12:09:35.121Z,84.30
2019-02-26T12:12:06.000Z,83.50
2019-02-26T12:14:34.701Z,85.50
2019-02-26T12:17:04.759Z,88.00
2019-02-26T12:19:34.388Z,92.20
2019-02-26T12:22:05.990Z,93.30
2019-02-26T12:24:36.130Z,95.20
2019-02-26T12:27:07.385Z,95.60
2019-02-26T12:29:36.419Z,96.00
2019-02-26T12:32:05.159Z,96.80
2019-02-26T12:34:35.227Z,96.80
2019-02-26T12:37:08.338Z,96.10
2019-02-26T12:39:35.774Z,97.30
2019-02-26T12:42:04.652Z,98.20
2019-02-26T12:44:37.441Z,99.00
2019-02-26T12:47:04.163Z,99.90
2019-02-26T12:49:35.621Z,99.90
2019-02-26T12:52:03.873Z,99.90
2019-02-26T12:54:33.508Z,99.90
2019-02-26T12:57:04.218Z,99.90
2019-02-26T12:59:33.407Z,99.90
2019-02-26T13:02:04.696Z,99.90
2019-02-26T13:04:40.856Z,99.90
2019-02-26T13:07:09.492Z,99.90
2019-02-26T13:09:46.531Z,99.90
2019-02-26T13:12:11.424Z,99.90
2019-02-26T13:14:39.965Z,99.90
2019-02-26T13:17:08.903Z,99.90
2019-02-26T13:19:38.134Z,99.40
2019-02-26T13:22:11.948Z,98.80
2019-02-26T13:24:37.715Z,98.70
2019-02-26T13:27:06.526Z,99.20
2019-02-26T13:29:35.291Z,99.50
2019-02-26T13:32:07.872Z,99.50
2019-02-26T13:34:35.370Z,99.90
2019-02-26T13:37:04.328Z,99.90
2019-02-26T13:39:38.576Z,99.90
2019-02-26T13:42:10.043Z,99.90
2019-02-26T13:44:35.420Z,99.90
2019-02-26T13:47:05.694Z,99.90
2019-02-26T13:49:34.715Z,99.90
2019-02-26T13:52:03.579Z,99.40
2019-02-26T13:54:33.440Z,99.90
2019-02-26T13:57:02.289Z,99.00
2019-02-26T13:59:31.512Z,99.60
2019-02-26T14:02:00.408Z,99.80
2019-02-26T14:04:29.788Z,99.30
2019-02-26T14:06:58.936Z,99.60
2019-02-26T14:09:28.736Z,99.90
2019-02-26T14:11:57.889Z,99.90
2019-02-26T14:14:26.822Z,99.90
2019-02-26T14:16:55.726Z,99.90
2019-02-26T14:19:24.503Z,99.90
2019-02-26T14:21:53.314Z,99.80
2019-02-26T14:24:22.296Z,99.80
2019-02-26T14:26:52.686Z,99.80
2019-02-26T14:29:21.526Z,99.70
2019-02-26T14:31:50.429Z,99.90
2019-02-26T14:34:19.351Z,98.80
2019-02-26T14:36:48.314Z,99.70
2019-02-26T14:39:17.509Z,99.90
2019-02-26T14:41:46.385Z,99.90
2019-02-26T14:44:16.058Z,99.90
2019-02-26T14:46:45.334Z,99.90
2019-02-26T14:49:14.160Z,99.90
2019-02-26T14:51:43.055Z,99.90
2019-02-26T14:54:11.942Z,99.90
2019-02-26T14:56:41.326Z,99.90
2019-02-26T14:59:10.590Z,99.90
2019-02-26T15:01:40.118Z,99.90
2019-02-26T15:04:09.016Z,99.90
2019-02-26T15:06:38.178Z,99.90
2019-02-26T15:09:07.780Z,99.90
2019-02-26T15:11:37.007Z,99.90
2019-02-26T15:14:06.331Z,99.90
2019-02-26T15:16:35.448Z,99.90
2019-02-26T15:19:04.417Z,99.90
2019-02-26T15:21:33.430Z,99.90
2019-02-26T15:24:02.245Z,99.90
2019-02-26T15:26:31.250Z,99.90
2019-02-26T15:29:00.114Z,99.90
2019-02-26T15:31:28.998Z,99.90
2019-02-26T15:33:57.783Z,99.90
2019-02-26T15:36:26.583Z,99.90
2019-02-26T15:38:55.677Z,99.90
2019-02-26T15:41:24.836Z,99.90
2019-02-26T15:43:54.503Z,99.90
2019-02-26T15:46:24.156Z,99.90
2019-02-26T15:48:53.152Z,99.90
2019-02-26T15:51:22.331Z,99.90
2019-02-26T15:53:55.489Z,99.90
2019-02-26T15:56:23.723Z,99.90
2019-02-26T15:58:52.578Z,99.90
2019-02-26T16:01:21.538Z,99.90
2019-02-26T16:03:56.310Z,99.90
2019-02-26T16:06:26.111Z,99.90
2019-02-26T16:08:55.160Z,99.90
2019-02-26T16:11:24.008Z,99.90
2019-02-26T16:13:52.915Z,99.90
2019-02-26T16:16:21.766Z,99.90
2019-02-26T16:18:50.723Z,99.90
2019-02-26T16:21:20.023Z,99.90
2019-02-26T16:23:48.986Z,99.90
2019-02-26T16:26:17.803Z,99.90
2019-02-26T16:28:46.685Z,99.90
2019-02-26T16:31:15.817Z,99.90
2019-02-26T16:33:46.418Z,99.90
2019-02-26T16:36:15.614Z,99.90
2019-02-26T16:38:44.571Z,99.90
2019-02-26T16:41:13.819Z,99.90
2019-02-26T16:43:42.767Z,99.90
2019-02-26T16:46:11.592Z,99.90
2019-02-26T16:48:40.781Z,99.90
2019-02-26T16:51:09.884Z,99.90
2019-02-26T16:53:38.690Z,99.90
2019-02-26T16:56:07.950Z,99.90
2019-02-26T16:58:36.796Z,99.90
2019-02-26T17:01:07.335Z,99.90
2019-02-26T17:03:36.470Z,99.90
2019-02-26T17:06:05.578Z,99.90
2019-02-26T17:08:34.433Z,99.90
2019-02-26T17:11:03.345Z,99.90
2019-02-26T17:13:32.162Z,99.90
2019-02-26T17:16:01.106Z,99.90
2019-02-26T17:18:29.859Z,99.90
2019-02-26T17:20:58.747Z,99.90
2019-02-26T17:23:27.572Z,99.90
2019-02-26T17:26:00.189Z,99.90
2019-02-26T17:28:26.980Z,99.90
2019-02-26T17:30:57.768Z,99.90
2019-02-26T17:33:26.492Z,99.90
2019-02-26T17:35:55.416Z,99.90
2019-02-26T17:38:25.981Z,99.90
2019-02-26T17:40:54.953Z,99.90
2019-02-26T17:43:25.106Z,99.90
2019-02-26T17:45:54.152Z,99.90
2019-02-26T17:48:22.971Z,99.90
2019-02-26T17:50:52.160Z,99.90
2019-02-26T17:53:21.219Z,99.90
2019-02-26T17:55:50.064Z,99.90
2019-02-26T17:58:18.929Z,99.90
2019-02-26T18:00:52.702Z,99.90
2019-02-26T18:03:21.507Z,99.90
2019-02-26T18:05:51.486Z,99.90
2019-02-26T18:08:20.800Z,99.90
2019-02-26T18:10:49.615Z,99.90
2019-02-26T18:13:20.680Z,99.90
2019-02-26T18:15:49.338Z,99.90
2019-02-26T18:18:18.626Z,99.90
2019-02-26T18:20:48.911Z,99.90
2019-02-26T18:23:18.368Z,99.90
2019-02-26T18:25:47.841Z,99.90
2019-02-26T18:28:16.836Z,99.90
2019-02-26T18:30:45.921Z,99.90
2019-02-26T18:33:14.808Z,99.90
2019-02-26T18:35:44.656Z,99.90
2019-02-26T18:38:13.516Z,99.90
2019-02-26T18:40:42.277Z,99.90
2019-02-26T18:43:14.036Z,99.90
2019-02-26T18:45:42.986Z,99.90
2019-02-26T18:48:12.662Z,99.90
2019-02-26T18:50:42.443Z,99.90
2019-02-26T18:53:11.762Z,99.90
2019-02-26T18:55:43.818Z,99.90
2019-02-26T18:58:13.742Z,99.90
2019-02-26T19:00:43.152Z,99.90
2019-02-26T19:03:12.523Z,99.90
2019-02-26T19:05:42.191Z,99.90
2019-02-26T19:08:11.099Z,99.90
2019-02-26T19:10:40.041Z,99.90
2019-02-26T19:13:09.256Z,99.90
2019-02-26T19:15:38.051Z,99.90
2019-02-26T19:18:07.064Z,99.90
2019-02-26T19:20:55.067Z,99.90
2019-02-26T19:23:24.078Z,99.90
2019-02-26T19:25:52.835Z,99.90
2019-02-26T19:28:25.603Z,99.90
2019-02-26T19:30:53.339Z,99.90
2019-02-26T19:33:22.587Z,99.90
2019-02-26T19:35:53.699Z,99.90
2019-02-26T19:38:22.587Z,99.90
2019-02-26T19:40:51.561Z,99.90
2019-02-26T19:43:20.995Z,99.90
2019-02-26T19:45:49.819Z,99.90
2019-02-26T19:48:18.908Z,99.90
2019-02-26T19:50:48.805Z,99.90
2019-02-26T19:53:18.316Z,99.90
2019-02-26T19:55:49.783Z,99.90
2019-02-26T19:58:17.642Z,99.90
2019-02-26T20:00:46.448Z,99.90
2019-02-26T20:03:15.251Z,99.90
2019-02-26T20:05:46.320Z,99.90
2019-02-26T20:08:14.540Z,99.90
2019-02-26T20:10:45.583Z,99.90
2019-02-26T20:13:13.771Z,99.90
2019-02-26T20:15:42.762Z,99.90
2019-02-26T20:18:20.487Z,99.90
2019-02-26T20:20:45.740Z,99.90
2019-02-26T20:23:14.018Z,99.90
2019-02-26T20:25:43.343Z,99.90
2019-02-26T20:28:12.317Z,99.90
2019-02-26T20:30:41.381Z,99.90
2019-02-26T20:33:10.132Z,99.90
2019-02-26T20:35:39.355Z,99.90
2019-02-26T20:38:08.259Z,99.90
2019-02-26T20:40:37.401Z,99.90
2019-02-26T20:43:06.319Z,99.90
2019-02-26T20:45:51.124Z,99.90
2019-02-26T20:48:19.827Z,99.90
2019-02-26T20:50:59.173Z,99.90
2019-02-26T20:53:30.462Z,99.90
2019-02-26T20:56:06.788Z,99.90
2019-02-26T20:58:36.000Z,99.90
2019-02-26T21:01:04.963Z,99.90
2019-02-26T21:03:33.865Z,99.90
2019-02-26T21:06:02.886Z,99.90
2019-02-26T21:08:31.816Z,99.90
2019-02-26T21:11:00.778Z,99.90
2019-02-26T21:13:29.740Z,99.90
2019-02-26T21:15:58.663Z,99.90
2019-02-26T21:18:30.542Z,99.90
2019-02-26T21:20:58.309Z,99.90
2019-02-26T21:23:27.826Z,99.90
2019-02-26T21:25:57.249Z,99.90
2019-02-26T21:28:26.231Z,99.90
2019-02-26T21:30:59.382Z,99.90
2019-02-26T21:33:30.802Z,99.90
2019-02-26T21:35:59.886Z,99.90
2019-02-26T21:38:28.679Z,99.90
2019-02-26T21:40:57.606Z,99.90
2019-02-26T21:43:26.521Z,99.90
2019-02-26T21:45:55.945Z,99.90
2019-02-26T21:48:24.695Z,99.90
2019-02-26T21:50:54.843Z,99.90
2019-02-26T21:53:24.250Z,99.90
2019-02-26T21:55:53.242Z,99.90
2019-02-26T21:58:22.305Z,99.90
2019-02-26T22:00:51.239Z,99.90
2019-02-26T22:03:24.602Z,99.90
2019-02-26T22:05:50.959Z,99.90
2019-02-26T22:08:19.823Z,99.90
2019-02-26T22:10:48.594Z,99.90
2019-02-26T22:13:17.719Z,99.90
2019-02-26T22:15:46.719Z,99.90
2019-02-26T22:18:15.700Z,99.90
2019-02-26T22:20:44.630Z,99.90
2019-02-26T22:23:14.896Z,99.90
2019-02-26T22:25:44.114Z,99.90
2019-02-26T22:28:13.144Z,99.90
2019-02-26T22:30:42.136Z,99.90
2019-02-26T22:33:10.968Z,99.90
2019-02-26T22:35:39.938Z,99.90
2019-02-26T22:38:08.909Z,99.90
2019-02-26T22:40:37.769Z,99.90
2019-02-26T22:43:06.572Z,99.90
2019-02-26T22:45:35.583Z,99.90
2019-02-26T22:48:04.515Z,99.90
2019-02-26T22:50:33.470Z,99.90
2019-02-26T22:53:04.048Z,99.90
2019-02-26T22:55:33.081Z,99.90
2019-02-26T22:58:02.818Z,99.90
2019-02-26T23:00:59.529Z,99.90
2019-02-26T23:03:28.550Z,99.90
2019-02-26T23:05:59.064Z,99.90
2019-02-26T23:08:28.368Z,99.90
2019-02-26T23:10:58.230Z,99.90
2019-02-26T23:13:31.650Z,99.90
2019-02-26T23:15:58.685Z,99.90
2019-02-26T23:18:28.513Z,99.90
2019-02-26T23:20:58.535Z,99.90
2019-02-26T23:23:27.450Z,99.90
2019-02-26T23:25:56.314Z,99.90
2019-02-26T23:28:44.358Z,99.90
2019-02-26T23:31:15.455Z,99.90
2019-02-26T23:33:48.137Z,99.90
2019-02-26T23:36:15.512Z,99.90
2019-02-26T23:38:44.753Z,99.90
2019-02-26T23:41:13.644Z,99.90
2019-02-26T23:43:42.938Z,99.90
2019-02-26T23:46:13.464Z,99.90
2019-02-26T23:48:42.207Z,99.90
2019-02-26T23:51:11.095Z,99.90
2019-02-26T23:53:40.206Z,99.90
2019-02-26T23:56:09.125Z,99.90
2019-02-26T23:58:37.899Z,99.90
